Time;durP1;ratioP1;P1;durP2;ratioP2;P2;SDS_P1;SDS_P2;PMS_P1;PMS_P2;Temp;Humidity;BMP_temperature;BMP_pressure;BME280_temperature;BME280_humidity;BME280_pressure;Samples;Min_cycle;Max_cycle;Signal;HPM_P1;HPM_P2
2023/10/31 00:02:23;;;;;;;;;3.67;3.00;;;;;9.89;100.00;99980.13;5058001;28;45802;-66
2023/10/31 00:04:49;;;;;;;;;2.00;2.00;;;;;9.80;100.00;99978.03;5059430;27;45553;-66
2023/10/31 00:07:14;;;;;;;;;3.00;3.00;;;;;9.68;100.00;99968.16;5065581;28;45900;-66
2023/10/31 00:09:40;;;;;;;;;1.00;1.00;;;;;9.65;100.00;99967.50;5068060;28;45446;-67
2023/10/31 00:12:05;;;;;;;;;3.67;2.33;;;;;9.72;100.00;99976.75;5065652;27;45377;-67
2023/10/31 00:14:31;;;;;;;;;4.00;3.00;;;;;9.49;100.00;99943.72;5066207;28;45427;-67
2023/10/31 00:16:57;;;;;;;;;3.33;2.33;;;;;9.66;100.00;99974.44;5058567;28;45405;-67
2023/10/31 00:19:22;;;;;;;;;4.00;4.00;;;;;9.64;100.00;99978.97;5066384;27;45401;-67
2023/10/31 00:21:47;;;;;;;;;15.00;10.00;;;;;9.62;100.00;99979.03;5060729;28;45600;-67
2023/10/31 00:24:13;;;;;;;;;11.33;10.33;;;;;9.59;100.00;99975.72;5059193;28;45297;-66
2023/10/31 00:26:38;;;;;;;;;30.33;23.00;;;;;9.53;100.00;99974.28;5059287;28;48580;-66
2023/10/31 00:29:03;;;;;;;;;35.25;31.25;;;;;9.52;100.00;99992.88;5069982;28;45316;-66
2023/10/31 00:31:29;;;;;;;;;27.33;21.67;;;;;9.26;100.00;99952.91;5056180;28;52299;-66
2023/10/31 00:33:55;;;;;;;;;26.25;24.25;;;;;9.42;100.00;99981.97;5061601;28;45590;-66
2023/10/31 00:36:21;;;;;;;;;26.00;24.33;;;;;9.37;100.00;99984.00;5058945;28;46068;-66
2023/10/31 00:38:46;;;;;;;;;27.00;21.00;;;;;9.27;100.00;99964.34;5072048;28;45216;-66
2023/10/31 00:41:11;;;;;;;;;18.00;18.00;;;;;9.22;100.00;99967.25;5071640;28;45255;-66
2023/10/31 00:43:37;;;;;;;;;21.33;19.67;;;;;9.31;100.00;99986.97;5069444;27;45390;-66
2023/10/31 00:46:03;;;;;;;;;18.33;18.33;;;;;9.30;100.00;99998.47;5068651;27;45379;-66
2023/10/31 00:48:29;;;;;;;;;17.33;13.67;;;;;9.26;100.00;99991.69;5063400;28;45355;-66
2023/10/31 00:50:54;;;;;;;;;19.33;15.00;;;;;9.21;100.00;99984.00;5075121;28;45301;-66
2023/10/31 00:53:19;;;;;;;;;13.33;13.33;;;;;9.20;100.00;99986.69;5065840;28;45519;-66
2023/10/31 00:55:45;;;;;;;;;11.33;10.67;;;;;9.18;100.00;99989.44;5067344;27;46042;-66
2023/10/31 00:58:10;;;;;;;;;15.00;13.00;;;;;9.12;100.00;99999.47;5071094;27;45411;-66
2023/10/31 01:00:37;;;;;;;;;14.67;14.67;;;;;9.11;100.00;99989.84;5072799;28;45425;-66
2023/10/31 01:03:03;;;;;;;;;20.67;17.67;;;;;9.07;100.00;99986.53;5061786;28;45350;-66
2023/10/31 01:05:28;;;;;;;;;31.00;25.33;;;;;9.03;100.00;99992.06;5074000;28;47018;-66
2023/10/31 01:07:54;;;;;;;;;34.00;25.33;;;;;9.02;100.00;99993.84;5065077;28;46472;-66
2023/10/31 01:10:20;;;;;;;;;25.67;21.00;;;;;9.00;100.00;100000.97;5061853;28;45714;-66
2023/10/31 01:12:45;;;;;;;;;26.33;20.67;;;;;8.96;100.00;99998.59;5060177;28;45442;-66
2023/10/31 01:15:10;;;;;;;;;20.33;16.67;;;;;8.88;100.00;99989.31;5077059;28;48143;-66
2023/10/31 01:17:36;;;;;;;;;21.33;16.67;;;;;8.90;100.00;100011.16;5077002;28;45649;-66
2023/10/31 01:20:01;;;;;;;;;19.67;13.00;;;;;8.77;100.00;99982.88;5067939;28;45235;-66
2023/10/31 01:22:27;;;;;;;;;13.67;12.67;;;;;8.80;100.00;99995.94;5064800;28;45242;-66
2023/10/31 01:24:52;;;;;;;;;14.67;12.67;;;;;8.89;100.00;100008.63;5072444;28;46188;-66
2023/10/31 01:27:17;;;;;;;;;15.00;12.33;;;;;8.86;100.00;100004.38;5065349;28;45415;-67
2023/10/31 01:29:43;;;;;;;;;14.00;13.00;;;;;8.87;100.00;100008.69;5065391;28;45246;-66
2023/10/31 01:32:08;;;;;;;;;16.00;14.33;;;;;8.87;100.00;100016.59;5069894;28;45454;-66
2023/10/31 01:34:33;;;;;;;;;16.00;14.33;;;;;8.85;100.00;100009.69;5063662;28;53074;-66
2023/10/31 01:36:59;;;;;;;;;17.67;15.67;;;;;8.84;100.00;100014.13;5062571;28;45586;-66
2023/10/31 01:39:24;;;;;;;;;16.67;14.00;;;;;8.81;100.00;100021.34;5065768;28;46133;-66
2023/10/31 01:41:49;;;;;;;;;17.67;12.00;;;;;8.77;100.00;100007.47;5072041;27;46604;-66
2023/10/31 01:44:15;;;;;;;;;12.33;11.00;;;;;8.78;100.00;100025.00;5074650;28;46051;-66
2023/10/31 01:46:40;;;;;;;;;12.00;6.67;;;;;8.77;100.00;100025.91;5060214;28;45430;-66
2023/10/31 01:49:05;;;;;;;;;6.00;5.00;;;;;8.74;100.00;100020.81;5066776;28;45679;-66
2023/10/31 01:51:31;;;;;;;;;10.00;3.00;;;;;8.78;100.00;100026.78;5061195;28;45310;-66
2023/10/31 01:53:56;;;;;;;;;2.33;2.33;;;;;8.80;100.00;100027.56;5060819;28;46422;-66
2023/10/31 01:56:22;;;;;;;;;3.00;3.00;;;;;8.82;100.00;100030.97;5065772;27;45495;-66
2023/10/31 01:58:49;;;;;;;;;2.00;1.67;;;;;8.83;100.00;100025.59;5069170;27;45482;-66
2023/10/31 02:01:15;;;;;;;;;3.33;3.33;;;;;8.84;100.00;100022.03;5059082;28;46194;-66
2023/10/31 02:03:40;;;;;;;;;4.67;3.00;;;;;8.85;100.00;100031.66;5060496;28;45412;-66
2023/10/31 02:06:06;;;;;;;;;1.67;1.67;;;;;8.88;100.00;100044.69;5060516;28;45343;-66
2023/10/31 02:08:32;;;;;;;;;2.00;2.00;;;;;8.89;100.00;100045.53;5071233;28;45291;-66
2023/10/31 02:10:57;;;;;;;;;2.00;2.00;;;;;8.88;100.00;100043.81;5070671;28;45288;-66
2023/10/31 02:13:23;;;;;;;;;0.00;0.00;;;;;8.95;100.00;100049.63;5065664;28;45391;-66
2023/10/31 02:15:48;;;;;;;;;1.00;1.00;;;;;8.96;100.00;100049.56;5070317;27;45422;-66
2023/10/31 02:18:14;;;;;;;;;2.33;2.00;;;;;8.98;100.00;100041.53;5071111;28;45272;-66
2023/10/31 02:20:39;;;;;;;;;3.00;1.00;;;;;8.98;100.00;100037.13;5061812;28;45451;-66
2023/10/31 02:23:05;;;;;;;;;2.00;2.00;;;;;9.05;100.00;100051.69;5073938;28;46007;-66
2023/10/31 02:25:31;;;;;;;;;3.00;1.00;;;;;8.95;100.00;100029.38;5061018;28;45340;-66
2023/10/31 02:27:56;;;;;;;;;3.00;2.00;;;;;8.84;100.00;100003.56;5071798;28;45362;-66
2023/10/31 02:30:22;;;;;;;;;1.00;1.00;;;;;9.18;100.00;100050.13;5066919;27;45436;-66
2023/10/31 02:32:47;;;;;;;;;2.00;2.00;;;;;9.21;100.00;100054.38;5064151;28;45689;-66
2023/10/31 02:35:13;;;;;;;;;2.00;1.33;;;;;9.23;100.00;100061.25;5069994;28;46439;-66
2023/10/31 02:37:39;;;;;;;;;4.00;2.00;;;;;9.32;100.00;100052.88;5060192;28;45817;-67
2023/10/31 02:40:06;;;;;;;;;2.33;2.00;;;;;9.39;100.00;100045.47;5062244;28;45646;-66
2023/10/31 02:42:31;;;;;;;;;2.67;2.67;;;;;9.49;100.00;100048.47;5059372;28;47895;-66
2023/10/31 02:44:56;;;;;;;;;4.67;3.33;;;;;9.56;100.00;100058.59;5060159;27;45570;-66
2023/10/31 02:47:22;;;;;;;;;4.00;3.00;;;;;9.62;100.00;100046.88;5069020;28;45424;-66
2023/10/31 02:49:47;;;;;;;;;2.00;2.00;;;;;9.67;100.00;100043.03;5061689;27;45459;-66
2023/10/31 02:52:12;;;;;;;;;5.33;3.67;;;;;9.73;100.00;100052.38;5074006;28;47198;-66
2023/10/31 02:54:38;;;;;;;;;3.67;2.33;;;;;9.78;100.00;100042.44;5079473;27;46045;-66
2023/10/31 02:57:03;;;;;;;;;5.00;3.33;;;;;9.83;100.00;100048.28;5072981;27;45492;-66
2023/10/31 02:59:29;;;;;;;;;2.00;1.67;;;;;9.86;100.00;100061.31;5073346;28;45905;-66
2023/10/31 03:01:57;;;;;;;;;3.00;3.00;;;;;9.85;100.00;100047.25;5077013;27;46298;-66
2023/10/31 03:04:22;;;;;;;;;5.00;4.00;;;;;9.91;100.00;100046.91;5069121;28;45810;-66
2023/10/31 03:06:47;;;;;;;;;4.67;4.67;;;;;9.91;100.00;100046.91;5063901;27;45479;-66
2023/10/31 03:09:12;;;;;;;;;3.33;3.33;;;;;10.00;100.00;100052.63;5064593;28;45587;-66
2023/10/31 03:11:38;;;;;;;;;3.33;3.33;;;;;10.03;100.00;100045.38;5064187;27;45997;-66
2023/10/31 03:14:03;;;;;;;;;4.00;4.00;;;;;10.06;100.00;100049.63;5070110;28;45392;-66
2023/10/31 03:16:29;;;;;;;;;2.00;2.00;;;;;10.08;100.00;100058.34;5064508;27;45354;-66
2023/10/31 03:18:54;;;;;;;;;5.33;3.67;;;;;9.92;100.00;100039.84;5073649;28;45281;-66
2023/10/31 03:21:19;;;;;;;;;3.67;3.67;;;;;10.10;100.00;100059.94;5061065;28;45434;-66
2023/10/31 03:23:49;;;;;;;;;5.33;4.67;;;;;10.14;100.00;100074.72;5066099;28;45385;-66
2023/10/31 03:26:17;;;;;;;;;4.00;4.00;;;;;10.06;100.00;100063.69;5064158;28;45257;-66
2023/10/31 03:28:44;;;;;;;;;4.33;4.00;;;;;10.21;100.00;100075.22;5073054;28;45328;-66
2023/10/31 03:31:10;;;;;;;;;3.33;3.00;;;;;10.20;100.00;100069.09;5075083;27;47549;-67
2023/10/31 03:33:35;;;;;;;;;4.00;3.00;;;;;10.24;100.00;100083.81;5067019;28;45260;-67
2023/10/31 03:36:01;;;;;;;;;6.00;4.00;;;;;10.17;100.00;100063.13;5058182;28;45254;-67
2023/10/31 03:38:26;;;;;;;;;4.00;3.33;;;;;10.23;100.00;100071.56;5063692;28;45513;-67
2023/10/31 03:40:52;;;;;;;;;5.67;5.00;;;;;10.35;100.00;100084.06;5068492;28;46131;-66
2023/10/31 03:43:18;;;;;;;;;5.67;3.00;;;;;10.28;100.00;100074.78;5072637;28;45332;-67
2023/10/31 03:45:43;;;;;;;;;5.33;2.67;;;;;10.41;100.00;100088.97;5074873;27;46827;-68
2023/10/31 03:48:09;;;;;;;;;3.00;3.00;;;;;10.39;100.00;100090.03;5062201;28;45568;-68
2023/10/31 03:50:34;;;;;;;;;4.33;3.00;;;;;10.47;100.00;100094.88;5059406;28;46168;-68
2023/10/31 03:52:59;;;;;;;;;2.33;2.33;;;;;10.50;100.00;100090.25;5075564;28;45647;-67
2023/10/31 03:55:25;;;;;;;;;6.33;4.00;;;;;10.40;100.00;100071.41;5076289;28;45474;-67
2023/10/31 03:57:50;;;;;;;;;4.33;3.33;;;;;10.49;100.00;100083.25;5071334;27;45427;-68
2023/10/31 04:00:16;;;;;;;;;4.33;3.00;;;;;10.56;100.00;100091.69;5084015;27;47158;-68
2023/10/31 04:02:41;;;;;;;;;7.00;4.00;;;;;10.50;100.00;100092.06;5071579;28;45339;-68
2023/10/31 04:05:07;;;;;;;;;3.33;3.33;;;;;10.60;100.00;100109.91;5060950;28;45900;-65
2023/10/31 04:07:32;;;;;;;;;4.00;4.00;;;;;10.61;100.00;100110.75;5065831;28;45235;-68
2023/10/31 04:09:57;;;;;;;;;4.67;3.33;;;;;10.60;100.00;100115.19;5074631;27;46234;-68
2023/10/31 04:12:23;;;;;;;;;3.00;3.00;;;;;10.64;100.00;100114.09;5065588;28;45502;-66
2023/10/31 04:14:48;;;;;;;;;4.00;4.00;;;;;10.65;100.00;100110.50;5068540;28;45438;-65
2023/10/31 04:17:14;;;;;;;;;6.00;4.67;;;;;10.67;100.00;100111.25;5068158;28;45228;-68
2023/10/31 04:19:39;;;;;;;;;6.00;4.00;;;;;10.67;100.00;100119.19;5069438;27;45438;-65
2023/10/31 04:22:05;;;;;;;;;5.00;3.00;;;;;10.67;100.00;100119.19;5076477;28;45312;-67
2023/10/31 04:24:31;;;;;;;;;5.00;3.00;;;;;10.71;100.00;100126.00;5062087;28;45384;-68
2023/10/31 04:26:56;;;;;;;;;6.00;4.00;;;;;10.57;100.00;100094.22;5074517;28;45531;-68
2023/10/31 04:29:22;;;;;;;;;6.00;4.00;;;;;10.65;100.00;100109.66;5062569;28;46055;-66
2023/10/31 04:31:48;;;;;;;;;6.33;4.00;;;;;10.67;100.00;100107.75;5063192;28;45273;-68
2023/10/31 04:34:13;;;;;;;;;5.00;4.00;;;;;10.76;100.00;100137.19;5062810;28;45577;-68
2023/10/31 04:36:39;;;;;;;;;3.33;1.00;;;;;10.79;100.00;100138.81;5061544;28;45257;-66
2023/10/31 04:39:05;;;;;;;;;2.67;2.00;;;;;10.83;100.00;100142.97;5062917;28;45334;-66
2023/10/31 04:41:30;;;;;;;;;3.33;3.00;;;;;10.84;100.00;100142.00;5064311;28;45368;-66
2023/10/31 04:43:56;;;;;;;;;3.67;3.00;;;;;10.85;100.00;100147.22;5073842;28;45391;-66
2023/10/31 04:46:21;;;;;;;;;5.00;5.00;;;;;10.82;100.00;100136.84;5078326;28;45438;-66
2023/10/31 04:48:47;;;;;;;;;3.00;3.00;;;;;10.89;100.00;100151.41;5065146;27;45396;-66
2023/10/31 04:51:12;;;;;;;;;5.00;3.00;;;;;10.90;100.00;100146.94;5063410;28;45334;-66
2023/10/31 04:53:37;;;;;;;;;4.00;3.00;;;;;10.92;100.00;100156.50;5078432;27;45632;-66
2023/10/31 04:56:04;;;;;;;;;4.67;3.67;;;;;10.82;100.00;100136.84;5063377;27;45485;-66
2023/10/31 04:58:29;;;;;;;;;3.00;3.00;;;;;10.95;100.00;100148.41;5072567;27;46251;-66
2023/10/31 05:00:54;;;;;;;;;4.00;4.00;;;;;10.93;100.00;100146.75;5068472;27;45695;-66
2023/10/31 05:03:20;;;;;;;;;4.33;3.00;;;;;10.97;100.00;100156.22;5061920;28;45865;-66
2023/10/31 05:05:45;;;;;;;;;6.00;3.00;;;;;10.76;100.00;100110.75;5062280;28;45475;-66
2023/10/31 05:08:10;;;;;;;;;6.67;5.67;;;;;11.01;100.00;100157.75;5078089;27;48271;-66
2023/10/31 05:10:36;;;;;;;;;5.00;4.00;;;;;10.94;100.00;100144.03;5061122;28;45498;-66
2023/10/31 05:13:02;;;;;;;;;6.00;5.00;;;;;10.88;100.00;100127.66;5062367;28;45225;-67
2023/10/31 05:15:28;;;;;;;;;4.00;3.33;;;;;11.08;100.00;100159.09;5062741;28;45351;-67
2023/10/31 05:17:53;;;;;;;;;2.00;2.00;;;;;11.06;100.00;100146.91;5063540;28;47059;-67
2023/10/31 05:20:18;;;;;;;;;5.00;4.00;;;;;11.10;100.00;100151.06;5062166;28;45356;-67
2023/10/31 05:22:43;;;;;;;;;5.00;4.33;;;;;11.03;100.00;100149.75;5067367;28;45184;-67
2023/10/31 05:25:09;;;;;;;;;3.00;3.00;;;;;11.04;100.00;100140.84;5080672;27;45531;-67
2023/10/31 05:27:34;;;;;;;;;2.00;2.00;;;;;11.03;100.00;100144.44;5070563;27;46173;-67
2023/10/31 05:30:00;;;;;;;;;5.67;4.00;;;;;11.13;100.00;100158.81;5061469;28;45245;-67
2023/10/31 05:32:25;;;;;;;;;3.67;3.67;;;;;11.16;100.00;100166.59;5070634;28;45266;-67
2023/10/31 05:34:50;;;;;;;;;7.33;5.67;;;;;11.18;100.00;100167.34;5061583;28;45199;-67
2023/10/31 05:37:16;;;;;;;;;4.00;4.00;;;;;11.21;100.00;100183.03;5061280;28;48328;-67
2023/10/31 05:39:41;;;;;;;;;3.00;2.67;;;;;11.14;100.00;100161.38;5072859;28;45470;-67
2023/10/31 05:42:06;;;;;;;;;4.33;3.00;;;;;11.25;100.00;100179.28;5059882;28;45481;-67
2023/10/31 05:44:32;;;;;;;;;3.67;3.67;;;;;11.25;100.00;100180.13;5061135;28;45459;-67
2023/10/31 05:46:57;;;;;;;;;6.00;5.00;;;;;11.27;100.00;100174.72;5072177;28;46539;-67
2023/10/31 05:49:22;;;;;;;;;4.33;4.00;;;;;11.25;100.00;100174.84;5062145;28;52047;-67
2023/10/31 05:51:51;;;;;;;;;3.33;3.33;;;;;11.25;100.00;100166.03;5060514;28;45404;-67
2023/10/31 05:54:17;;;;;;;;;7.33;4.00;;;;;11.29;100.00;100176.31;5074722;28;45511;-67
2023/10/31 05:56:43;;;;;;;;;6.00;5.00;;;;;11.17;100.00;100152.38;5066682;27;46138;-67
2023/10/31 05:59:08;;;;;;;;;5.00;4.00;;;;;11.34;100.00;100181.34;5064078;28;45322;-67
2023/10/31 06:01:33;;;;;;;;;4.00;3.67;;;;;11.33;100.00;100185.78;5063289;27;45285;-67
2023/10/31 06:03:58;;;;;;;;;4.67;4.00;;;;;11.25;100.00;100174.84;5061047;28;45462;-67
2023/10/31 06:06:24;;;;;;;;;8.00;5.67;;;;;11.35;100.00;100178.59;5060297;28;45181;-67
2023/10/31 06:08:49;;;;;;;;;3.00;3.00;;;;;11.36;100.00;100184.75;5061919;28;45426;-67
2023/10/31 06:11:15;;;;;;;;;8.00;5.67;;;;;11.27;100.00;100159.69;5070302;28;45575;-67
2023/10/31 06:13:41;;;;;;;;;5.00;4.00;;;;;11.35;100.00;100178.59;5068121;28;45546;-67
2023/10/31 06:16:07;;;;;;;;;5.00;3.67;;;;;11.42;100.00;100181.72;5060594;28;46186;-67
2023/10/31 06:18:33;;;;;;;;;5.67;4.00;;;;;11.26;100.00;100155.34;5070603;28;46032;-67
2023/10/31 06:20:58;;;;;;;;;5.00;4.00;;;;;11.32;100.00;100167.38;5067426;28;45698;-67
2023/10/31 06:23:23;;;;;;;;;4.33;4.00;;;;;11.38;100.00;100169.66;5077628;27;45514;-67
2023/10/31 06:25:49;;;;;;;;;5.33;4.00;;;;;11.44;100.00;100186.00;5077487;27;46181;-67
2023/10/31 06:28:14;;;;;;;;;5.00;4.00;;;;;11.43;100.00;100176.34;5073656;27;45301;-67
2023/10/31 06:30:39;;;;;;;;;4.33;4.00;;;;;11.43;100.00;100181.66;5061362;28;46011;-67
2023/10/31 06:33:07;;;;;;;;;6.00;4.00;;;;;11.44;100.00;100191.31;5059850;28;45431;-67
2023/10/31 06:35:32;;;;;;;;;4.00;4.00;;;;;11.43;100.00;100191.38;5059500;28;46213;-67
2023/10/31 06:37:58;;;;;;;;;4.00;2.00;;;;;11.45;100.00;100208.88;5067764;28;45378;-67
2023/10/31 06:40:25;;;;;;;;;1.67;1.67;;;;;11.49;100.00;100215.69;5060720;28;45591;-67
2023/10/31 06:42:50;;;;;;;;;4.00;4.00;;;;;11.41;100.00;100186.19;5063505;28;45378;-67
2023/10/31 06:45:15;;;;;;;;;6.67;4.33;;;;;11.50;100.00;100211.25;5060261;28;45392;-67
2023/10/31 06:47:41;;;;;;;;;4.00;2.33;;;;;11.51;100.00;100212.97;5060346;28;45361;-67
2023/10/31 06:50:07;;;;;;;;;5.00;5.00;;;;;11.50;100.00;100205.97;5060217;28;45239;-67
2023/10/31 06:52:33;;;;;;;;;5.00;4.00;;;;;11.53;100.00;100208.44;5067482;28;45353;-67
2023/10/31 06:54:58;;;;;;;;;2.00;2.00;;;;;11.52;100.00;100204.91;5073263;28;46138;-67
2023/10/31 06:57:23;;;;;;;;;4.00;4.00;;;;;11.53;100.00;100205.78;5065875;27;45289;-67
2023/10/31 06:59:49;;;;;;;;;4.00;3.33;;;;;11.52;100.00;100198.78;5070587;28;45871;-67
2023/10/31 07:02:14;;;;;;;;;4.00;4.00;;;;;11.39;100.00;100201.31;5080913;27;45404;-67
2023/10/31 07:04:40;;;;;;;;;4.00;3.67;;;;;11.54;100.00;100212.78;5058982;28;46005;-67
2023/10/31 07:07:05;;;;;;;;;4.33;4.00;;;;;11.50;100.00;100206.81;5060037;28;45274;-67
2023/10/31 07:09:31;;;;;;;;;3.00;3.00;;;;;11.58;100.00;100213.47;5067598;28;45304;-67
2023/10/31 07:11:56;;;;;;;;;3.33;3.33;;;;;11.60;100.00;100230.94;5061107;28;45296;-66
2023/10/31 07:14:21;;;;;;;;;2.00;2.00;;;;;11.58;100.00;100222.25;5061517;28;45493;-66
2023/10/31 07:16:48;;;;;;;;;3.67;3.00;;;;;11.65;100.00;100228.03;5074200;28;45237;-67
2023/10/31 07:19:14;;;;;;;;;5.33;3.33;;;;;11.67;100.00;100232.28;5060765;28;45373;-67
2023/10/31 07:21:39;;;;;;;;;3.00;2.33;;;;;11.72;100.00;100246.13;5061502;28;45442;-67
2023/10/31 07:24:08;;;;;;;;;3.33;3.33;;;;;11.77;100.00;100249.38;5059903;28;46523;-66
2023/10/31 07:26:34;;;;;;;;;4.00;3.00;;;;;11.80;100.00;100256.28;5063820;28;46288;-67
2023/10/31 07:28:59;;;;;;;;;1.33;1.33;;;;;11.78;100.00;100251.03;5060857;28;45380;-66
2023/10/31 07:31:25;;;;;;;;;6.67;3.00;;;;;11.73;100.00;100231.94;5063287;28;45276;-67
2023/10/31 07:33:50;;;;;;;;;6.33;3.00;;;;;11.84;100.00;100250.69;5085510;27;47008;-67
2023/10/31 07:36:15;;;;;;;;;2.33;2.00;;;;;11.83;100.00;100235.75;5073364;28;46420;-67
2023/10/31 07:38:41;;;;;;;;;2.33;2.33;;;;;11.92;100.00;100244.91;5070814;28;45367;-67
2023/10/31 07:41:06;;;;;;;;;3.00;3.00;;;;;11.95;100.00;100253.53;5070452;27;45832;-67
2023/10/31 07:43:31;;;;;;;;;2.67;2.67;;;;;11.91;100.00;100257.31;5060219;28;46097;-67
2023/10/31 07:45:57;;;;;;;;;1.67;1.67;;;;;11.95;100.00;100271.22;5071941;28;45696;-67
2023/10/31 07:48:22;;;;;;;;;3.00;3.00;;;;;12.01;100.00;100277.00;5065366;28;46427;-67
2023/10/31 07:50:47;;;;;;;;;7.00;2.00;;;;;11.98;100.00;100258.63;5063349;28;45230;-66
2023/10/31 07:53:13;;;;;;;;;4.00;3.00;;;;;11.99;100.00;100262.16;5073184;28;47253;-67
2023/10/31 07:55:38;;;;;;;;;2.00;1.00;;;;;11.99;100.00;100270.94;5071213;28;45184;-66
2023/10/31 07:58:03;;;;;;;;;2.33;0.67;;;;;12.04;100.00;100277.78;5069651;28;45359;-66
2023/10/31 08:00:29;;;;;;;;;3.00;1.00;;;;;12.05;100.00;100276.81;5075379;27;45584;-66
2023/10/31 08:02:54;;;;;;;;;1.67;1.67;;;;;12.09;100.00;100279.19;5068115;27;47091;-67
2023/10/31 08:05:19;;;;;;;;;1.33;1.33;;;;;12.14;100.00;100286.88;5059869;28;45291;-67
2023/10/31 08:07:45;;;;;;;;;2.00;2.00;;;;;12.15;100.00;100288.56;5073281;28;45313;-67
2023/10/31 08:10:10;;;;;;;;;4.00;1.00;;;;;12.12;100.00;100294.03;5069837;28;45293;-67
2023/10/31 08:12:35;;;;;;;;;1.00;1.00;;;;;12.18;100.00;100302.47;5076033;27;45950;-67
2023/10/31 08:15:02;;;;;;;;;3.00;1.67;;;;;12.26;100.00;100302.00;5073560;28;45475;-67
2023/10/31 08:17:27;;;;;;;;;2.00;2.00;;;;;12.27;100.00;100301.06;5063458;27;45267;-67
2023/10/31 08:19:53;;;;;;;;;5.33;1.00;;;;;12.28;100.00;100308.06;5068314;28;45247;-67
2023/10/31 08:22:18;;;;;;;;;3.00;2.00;;;;;12.23;100.00;100315.47;5070905;27;45230;-67
2023/10/31 08:24:43;;;;;;;;;2.33;1.33;;;;;12.29;100.00;100321.22;5072371;28;45285;-66
2023/10/31 08:27:10;;;;;;;;;3.00;3.00;;;;;12.31;100.00;100316.66;5061954;27;46544;-67
2023/10/31 08:29:35;;;;;;;;;1.00;1.00;;;;;12.21;100.00;100312.88;5075233;28;45254;-67
2023/10/31 08:32:00;;;;;;;;;2.33;2.00;;;;;12.34;100.00;100326.22;5062669;28;46021;-67
2023/10/31 08:34:26;;;;;;;;;1.00;1.00;;;;;12.35;100.00;100327.94;5065876;27;45357;-67
2023/10/31 08:36:52;;;;;;;;;2.00;1.00;;;;;12.35;100.00;100334.09;5062163;28;45171;-67
2023/10/31 08:39:18;;;;;;;;;2.33;1.33;;;;;12.39;100.00;100327.66;5068399;28;45371;-67
2023/10/31 08:41:57;;;;;;;;;1.00;1.00;;;;;12.41;100.00;100339.03;5059148;28;46398;-67
2023/10/31 08:44:22;;;;;;;;;2.00;2.00;;;;;12.36;100.00;100317.25;5058805;28;45305;-67
2023/10/31 08:46:48;;;;;;;;;3.33;3.00;;;;;12.51;100.00;100344.59;5071172;28;45414;-67
2023/10/31 08:49:14;;;;;;;;;3.33;2.00;;;;;12.53;100.00;100348.03;5067635;27;45551;-67
2023/10/31 08:51:39;;;;;;;;;2.00;2.00;;;;;12.60;100.00;100351.16;5059683;28;45443;-67
2023/10/31 08:54:05;;;;;;;;;3.00;3.00;;;;;12.63;100.00;100348.31;5059463;28;45313;-67
2023/10/31 08:56:30;;;;;;;;;1.00;1.00;;;;;12.62;100.00;100343.94;5062351;27;45368;-67
2023/10/31 08:58:56;;;;;;;;;2.00;1.67;;;;;12.67;100.00;100349.81;5061516;28;45281;-67
2023/10/31 09:01:22;;;;;;;;;2.00;2.00;;;;;12.65;100.00;100352.56;5062501;28;45456;-67
2023/10/31 09:03:47;;;;;;;;;1.33;1.33;;;;;12.60;100.00;100341.38;5078592;27;45180;-67
2023/10/31 09:06:13;;;;;;;;;3.00;3.00;;;;;12.65;100.00;100347.25;5063013;28;45311;-67
2023/10/31 09:08:38;;;;;;;;;1.00;1.00;;;;;12.58;100.00;100345.94;5067662;28;45270;-67
2023/10/31 09:11:05;;;;;;;;;1.33;1.33;;;;;12.66;100.00;100356.06;5071442;27;45331;-67
2023/10/31 09:13:31;;;;;;;;;3.00;2.00;;;;;12.63;100.00;100354.44;5062397;28;45282;-67
2023/10/31 09:15:58;;;;;;;;;3.67;2.00;;;;;12.58;100.00;100348.59;5074014;28;45471;-67
2023/10/31 09:18:24;;;;;;;;;1.00;1.00;;;;;12.75;100.00;100374.91;5062285;28;45358;-67
2023/10/31 09:20:49;;;;;;;;;2.00;2.00;;;;;12.71;100.00;100369.91;5081414;28;46015;-67
2023/10/31 09:23:15;;;;;;;;;3.00;2.00;;;;;12.74;100.00;100380.31;5082640;27;45313;-67
2023/10/31 09:25:40;;;;;;;;;2.00;2.00;;;;;12.75;100.00;100388.19;5077713;27;45369;-67
2023/10/31 09:28:06;;;;;;;;;3.00;2.67;;;;;12.70;100.00;100382.31;5063134;28;45330;-67
2023/10/31 09:30:31;;;;;;;;;2.67;2.00;;;;;12.78;100.00;100400.41;5080274;28;47435;-67
2023/10/31 09:32:57;;;;;;;;;3.00;2.00;;;;;12.71;100.00;100389.31;5069164;27;45316;-67
2023/10/31 09:35:22;;;;;;;;;2.67;2.67;;;;;12.81;100.00;100390.44;5068543;28;45346;-67
2023/10/31 09:37:48;;;;;;;;;2.33;2.00;;;;;12.61;100.00;100340.44;5082235;27;45266;-67
2023/10/31 09:40:14;;;;;;;;;3.00;3.00;;;;;12.96;100.00;100400.09;5081866;28;46176;-67
2023/10/31 09:42:40;;;;;;;;;1.67;1.00;;;;;12.88;100.00;100370.53;5069912;27;45299;-67
2023/10/31 09:45:06;;;;;;;;;3.33;2.00;;;;;13.15;100.00;100391.88;5069778;28;45375;-67
2023/10/31 09:47:32;;;;;;;;;2.00;2.00;;;;;13.25;100.00;100392.94;5074322;28;45209;-67
2023/10/31 09:49:58;;;;;;;;;1.33;1.33;;;;;13.35;100.00;100403.84;5068371;27;47007;-67
2023/10/31 09:52:23;;;;;;;;;1.00;1.00;;;;;13.43;100.00;100405.06;5068996;27;45345;-67
2023/10/31 09:54:50;;;;;;;;;3.67;2.33;;;;;13.51;100.00;100415.19;5079334;28;45283;-67
2023/10/31 09:57:17;;;;;;;;;2.67;2.00;;;;;13.58;100.00;100416.47;5081627;27;45358;-67
2023/10/31 09:59:43;;;;;;;;;2.00;2.00;;;;;13.68;100.00;100420.22;5070309;28;45995;-67
2023/10/31 10:02:08;;;;;;;;;2.67;1.00;;;;;13.73;100.00;100425.25;5071601;27;45296;-67
2023/10/31 10:04:34;;;;;;;;;3.33;3.33;;;;;13.75;100.00;100416.22;5077728;27;45743;-67
2023/10/31 10:07:01;;;;;;;;;4.33;2.00;;;;;13.81;100.00;100425.56;5072020;28;45372;-67
2023/10/31 10:09:27;;;;;;;;;4.33;3.00;;;;;13.82;100.00;100422.81;5071204;27;45296;-67
2023/10/31 10:11:52;;;;;;;;;2.00;1.00;;;;;13.85;100.00;100430.59;5065692;28;45542;-67
2023/10/31 10:14:18;;;;;;;;;2.00;2.00;;;;;13.73;100.00;100404.84;5073057;27;45530;-67
2023/10/31 10:16:43;;;;;;;;;2.00;2.00;;;;;13.81;100.00;100410.47;5063443;27;45442;-67
2023/10/31 10:19:21;;;;;;;;;1.67;1.67;;;;;13.84;100.00;100428.06;5064506;27;45419;-67
2023/10/31 10:21:53;;;;;;;;;3.33;3.00;;;;;13.79;100.00;100416.88;5071706;28;45524;-67
2023/10/31 10:24:19;;;;;;;;;2.00;2.00;;;;;13.92;100.00;100433.69;5070907;28;45320;-67
2023/10/31 10:26:45;;;;;;;;;1.00;1.00;;;;;14.01;100.00;100435.72;5072561;27;45408;-67
2023/10/31 10:29:11;;;;;;;;;1.00;1.00;;;;;14.02;100.00;100408.19;5064858;27;46966;-66
2023/10/31 10:31:36;;;;;;;;;2.67;2.67;;;;;14.24;100.00;100428.84;5063810;28;45310;-67
2023/10/31 10:34:01;;;;;;;;;2.00;2.00;;;;;14.35;100.00;100437.88;5073273;28;45514;-67
2023/10/31 10:36:28;;;;;;;;;1.33;1.33;;;;;14.46;100.00;100437.94;5063951;28;45241;-67
2023/10/31 10:38:57;;;;;;;;;2.00;2.00;;;;;14.54;100.00;100438.28;5071573;28;46172;-67
2023/10/31 10:41:27;;;;;;;;;3.00;2.00;;;;;14.62;100.00;100456.41;5060491;28;45480;-67
2023/10/31 10:44:06;;;;;;;;;4.00;1.00;;;;;14.62;100.00;100443.09;5060774;28;45349;-67
2023/10/31 10:46:36;;;;;;;;;1.00;1.00;;;;;14.65;100.00;100452.66;5065950;28;45439;-67
2023/10/31 10:49:07;;;;;;;;;2.00;1.00;;;;;14.77;100.00;100458.00;5062960;28;46297;-67
2023/10/31 10:51:53;;;;;;;;;1.00;1.00;;;;;14.82;100.00;100447.84;5074830;28;45400;-67
2023/10/31 10:54:48;;;;;;;;;1.00;1.00;;;;;14.98;100.00;100455.63;5080284;27;45281;-67
2023/10/31 10:57:28;;;;;;;;;5.00;2.00;;;;;15.02;100.00;100465.94;5072484;27;45469;-67
2023/10/31 10:59:58;;;;;;;;;1.67;1.67;;;;;15.00;100.00;100475.00;5063313;28;45697;-67
2023/10/31 11:02:26;;;;;;;;;4.67;2.00;;;;;14.99;100.00;100468.81;5061521;28;45304;-67
2023/10/31 11:04:52;;;;;;;;;1.00;1.00;;;;;14.95;100.00;100480.66;5065473;28;45187;-67
2023/10/31 11:07:20;;;;;;;;;2.00;2.00;;;;;14.89;100.00;100478.41;5064778;28;45733;-67
2023/10/31 11:09:47;;;;;;;;;2.00;1.00;;;;;14.82;100.00;100489.63;5065557;28;47026;-67
2023/10/31 11:12:13;;;;;;;;;1.00;1.00;;;;;14.69;100.00;100459.50;5069666;27;46980;-67
2023/10/31 11:14:40;;;;;;;;;1.00;1.00;;;;;14.84;100.00;100475.25;5061810;28;45314;-67